Time;durP1;ratioP1;P1;durP2;ratioP2;P2;SDS_P1;SDS_P2;PMS_P1;PMS_P2;Temp;Humidity;BMP_temperature;BMP_pressure;BME280_temperature;BME280_humidity;BME280_pressure;Samples;Min_cycle;Max_cycle;Signal;HPM_P1;HPM_P2
2022/02/19 00:00:15;;;;;;;7.93;3.28;;;;;;;14.87;69.45;101298.25;2102905;28;20055;-73
2022/02/19 00:01:38;;;;;;;11.52;3.30;;;;;;;14.81;69.43;101298.22;2085315;28;20045;-73
2022/02/19 00:03:01;;;;;;;7.00;2.55;;;;;;;14.79;69.14;101293.75;2088270;28;20508;-72
2022/02/19 00:04:24;;;;;;;13.95;3.50;;;;;;;14.75;69.10;101292.84;2090172;28;20044;-74
2022/02/19 00:05:47;;;;;;;9.45;4.22;;;;;;;14.68;69.02;101286.63;2102646;28;20048;-73
2022/02/19 00:07:09;;;;;;;6.47;3.17;;;;;;;14.66;68.91;101292.78;2091081;28;20037;-73
2022/02/19 00:08:32;;;;;;;10.90;3.60;;;;;;;14.60;68.60;101290.97;2094510;28;20036;-73
2022/02/19 00:09:55;;;;;;;7.97;3.28;;;;;;;14.59;68.33;101281.22;2086162;28;20187;-73
2022/02/19 00:11:18;;;;;;;6.38;2.67;;;;;;;14.56;68.17;101293.59;2085907;28;20118;-73
2022/02/19 00:12:40;;;;;;;8.30;2.90;;;;;;;14.53;68.22;101297.13;2080469;28;20107;-73
2022/02/19 00:14:04;;;;;;;9.20;3.63;;;;;;;14.53;68.09;101294.47;2100056;28;20098;-72
2022/02/19 00:15:27;;;;;;;8.00;2.72;;;;;;;14.50;67.82;101291.78;2083072;28;20053;-73
2022/02/19 00:16:48;;;;;;;8.95;3.20;;;;;;;14.47;67.61;101290.84;2107686;28;20031;-73
2022/02/19 00:18:11;;;;;;;6.72;2.53;;;;;;;14.45;67.67;101288.19;2099325;28;20131;-73
2022/02/19 00:19:34;;;;;;;10.93;3.28;;;;;;;14.41;67.76;101288.16;2085943;28;20052;-74
2022/02/19 00:20:57;;;;;;;7.15;2.88;;;;;;;14.39;67.83;101289.91;2075344;28;20140;-73
2022/02/19 00:22:22;;;;;;;9.57;2.88;;;;;;;14.35;67.58;101291.63;2087500;28;20047;-73
2022/02/19 00:23:43;;;;;;;7.25;3.22;;;;;;;14.33;67.73;101304.00;2094201;28;20135;-73
2022/02/19 00:25:07;;;;;;;12.20;3.42;;;;;;;14.33;68.06;101293.38;2088277;28;20643;-73
2022/02/19 00:26:28;;;;;;;11.93;3.35;;;;;;;14.30;68.17;101288.94;2094162;28;20077;-73
2022/02/19 00:27:50;;;;;;;7.65;2.80;;;;;;;14.28;67.77;101288.03;2085973;28;20523;-73
2022/02/19 00:29:13;;;;;;;6.22;2.92;;;;;;;14.28;67.89;101287.13;2091722;28;20052;-73
2022/02/19 00:30:36;;;;;;;10.48;2.78;;;;;;;14.26;67.92;101292.41;2080347;28;20493;-73
2022/02/19 00:31:58;;;;;;;11.02;3.03;;;;;;;14.23;68.00;101292.41;2089979;28;20093;-73
2022/02/19 00:33:25;;;;;;;12.98;2.47;;;;;;;14.23;68.16;101286.22;2086920;28;20144;-73
2022/02/19 00:34:47;;;;;;;9.57;2.88;;;;;;;14.22;68.30;101287.97;2089180;28;20438;-73
2022/02/19 00:36:10;;;;;;;7.30;2.75;;;;;;;14.22;68.08;101284.41;2078722;28;20041;-73
2022/02/19 00:37:32;;;;;;;7.03;2.85;;;;;;;14.22;68.29;101284.41;2085365;28;20052;-73
2022/02/19 00:38:55;;;;;;;11.40;2.75;;;;;;;14.22;68.19;101285.31;2091276;28;20048;-73
2022/02/19 00:40:16;;;;;;;10.38;2.67;;;;;;;14.23;68.10;101281.78;2094356;28;20148;-73
2022/02/19 00:41:39;;;;;;;7.15;2.78;;;;;;;14.21;68.28;101277.31;2083019;28;20044;-74
2022/02/19 00:43:02;;;;;;;16.10;4.50;;;;;;;14.20;68.16;101281.75;2098872;28;20048;-73
2022/02/19 00:44:27;;;;;;;8.15;3.20;;;;;;;14.21;68.45;101286.19;2088671;28;20049;-73
2022/02/19 00:45:50;;;;;;;7.70;3.15;;;;;;;14.21;68.40;101287.94;2092138;28;20411;-73
2022/02/19 00:47:12;;;;;;;8.98;2.72;;;;;;;14.20;68.44;101287.06;2093881;28;20133;-73
2022/02/19 00:48:36;;;;;;;10.43;3.17;;;;;;;14.20;68.53;101294.13;2095091;28;20407;-73
2022/02/19 00:49:58;;;;;;;10.27;3.35;;;;;;;14.22;68.73;101292.38;2085071;28;20450;-73
2022/02/19 00:51:21;;;;;;;10.73;4.05;;;;;;;14.24;69.04;101288.00;2086324;28;20133;-74
2022/02/19 00:52:44;;;;;;;14.80;3.10;;;;;;;14.26;68.65;101288.88;2085382;28;20052;-73
2022/02/19 00:54:05;;;;;;;9.40;3.05;;;;;;;14.29;69.05;101286.25;2082834;28;20231;-73
2022/02/19 00:55:28;;;;;;;13.45;4.05;;;;;;;14.31;68.87;101290.69;2083106;28;20055;-74
2022/02/19 00:56:51;;;;;;;10.02;2.70;;;;;;;14.32;69.02;101287.16;2099522;28;20044;-73
2022/02/19 00:58:13;;;;;;;9.65;2.67;;;;;;;14.33;68.94;101288.06;2096971;28;20675;-73
2022/02/19 00:59:38;;;;;;;8.60;3.10;;;;;;;14.34;69.32;101295.16;2087876;28;20052;-73
2022/02/19 01:01:00;;;;;;;9.77;3.80;;;;;;;14.33;69.27;101288.94;2086106;28;20149;-73
2022/02/19 01:02:35;;;;;;;5.97;2.22;;;;;;;14.35;69.47;101294.28;2079159;28;20075;-73
2022/02/19 01:04:02;;;;;;;10.20;2.30;;;;;;;14.35;69.21;101295.16;2098934;28;20488;-73
2022/02/19 01:05:25;;;;;;;6.57;2.72;;;;;;;14.38;69.35;101296.09;2083685;28;20129;-73
2022/02/19 01:06:47;;;;;;;8.02;2.45;;;;;;;14.39;69.46;101298.75;2082293;28;20037;-73
2022/02/19 01:08:11;;;;;;;7.78;2.92;;;;;;;14.40;69.45;101299.66;2086019;28;20057;-73
2022/02/19 01:09:32;;;;;;;8.15;3.03;;;;;;;14.41;69.58;101304.09;2093895;28;20044;-74
2022/02/19 01:10:55;;;;;;;7.97;3.15;;;;;;;14.41;69.57;101294.38;2088631;28;20424;-73
2022/02/19 01:12:18;;;;;;;9.07;2.30;;;;;;;14.43;69.21;101299.69;2083869;28;20552;-74
2022/02/19 01:13:39;;;;;;;7.15;2.42;;;;;;;14.43;69.43;101305.91;2091215;28;20075;-74
2022/02/19 01:15:06;;;;;;;10.63;2.70;;;;;;;14.42;69.35;101309.44;2099580;28;20083;-74
2022/02/19 01:16:29;;;;;;;8.45;2.42;;;;;;;14.38;69.72;101310.25;2094326;28;20519;-73
2022/02/19 01:17:50;;;;;;;8.65;2.38;;;;;;;14.37;69.53;101311.13;2091152;28;20040;-74
2022/02/19 01:19:12;;;;;;;11.80;2.60;;;;;;;14.37;69.74;101297.84;2091096;28;20060;-74
2022/02/19 01:20:36;;;;;;;11.80;3.30;;;;;;;14.36;69.74;101318.22;2091416;28;20467;-74
2022/02/19 01:22:00;;;;;;;10.20;3.20;;;;;;;14.36;69.79;101320.88;2075389;28;20076;-73
2022/02/19 01:23:23;;;;;;;16.35;3.10;;;;;;;14.38;69.91;101312.91;2089205;28;20140;-73
2022/02/19 01:24:46;;;;;;;11.98;3.28;;;;;;;14.38;70.05;101317.34;2106560;28;20055;-73
2022/02/19 01:26:08;;;;;;;10.50;2.85;;;;;;;14.36;69.66;101317.31;2089668;28;20435;-74
2022/02/19 01:27:31;;;;;;;11.57;3.88;;;;;;;14.36;70.09;101310.22;2078571;28;20061;-73
2022/02/19 01:28:54;;;;;;;7.55;2.60;;;;;;;14.36;69.76;101307.56;2101100;28;20064;-73
2022/02/19 01:30:23;;;;;;;8.45;2.05;;;;;;;14.37;69.55;101321.75;2083499;28;20045;-74
2022/02/19 01:31:51;;;;;;;7.45;2.22;;;;;;;14.37;69.39;101316.44;2087239;28;20615;-74
2022/02/19 01:33:12;;;;;;;8.30;3.03;;;;;;;14.37;69.01;101321.75;2091883;28;20060;-73
2022/02/19 01:34:35;;;;;;;7.75;2.70;;;;;;;14.37;69.03;101319.09;2109365;28;20048;-73
2022/02/19 01:35:57;;;;;;;10.48;3.28;;;;;;;14.36;68.91;101319.97;2084157;28;20053;-73
2022/02/19 01:37:20;;;;;;;6.07;2.50;;;;;;;14.38;68.66;101317.34;2073351;28;20436;-73
2022/02/19 01:38:43;;;;;;;6.95;2.25;;;;;;;14.39;68.75;101313.81;2090767;28;20075;-73
2022/02/19 01:40:07;;;;;;;8.30;3.28;;;;;;;14.40;68.81;101315.59;2095275;28;20534;-73
2022/02/19 01:41:32;;;;;;;9.13;3.00;;;;;;;14.39;68.88;101322.66;2087245;28;20069;-74
2022/02/19 01:42:55;;;;;;;6.88;2.13;;;;;;;14.41;68.87;101330.66;2085064;28;20135;-74
2022/02/19 01:44:21;;;;;;;7.35;2.38;;;;;;;14.41;68.67;101322.69;2077163;28;20136;-73
2022/02/19 01:45:48;;;;;;;9.52;3.28;;;;;;;14.46;68.61;101324.50;2082875;28;20044;-73
2022/02/19 01:47:12;;;;;;;6.63;2.75;;;;;;;14.48;68.12;101316.56;2093728;28;20090;-73
2022/02/19 01:48:35;;;;;;;12.35;2.78;;;;;;;14.48;67.65;101313.91;2081314;28;20569;-73
2022/02/19 01:49:59;;;;;;;7.00;2.33;;;;;;;14.51;67.27;101303.28;2092677;28;20056;-73
2022/02/19 01:51:23;;;;;;;9.32;2.30;;;;;;;14.52;66.74;101310.38;2074602;28;20042;-73
2022/02/19 01:52:46;;;;;;;8.75;2.40;;;;;;;14.56;66.74;101315.75;2098949;28;20044;-73
2022/02/19 01:54:14;;;;;;;5.60;1.92;;;;;;;14.55;66.66;101313.06;2088378;28;20151;-73
2022/02/19 01:56:09;;;;;;;8.20;2.78;;;;;;;14.59;66.18;101306.91;2080655;28;20063;-73
2022/02/19 01:58:08;;;;;;;7.13;2.28;;;;;;;14.61;65.86;101305.16;2097092;28;20481;-73
2022/02/19 01:59:53;;;;;;;4.88;2.03;;;;;;;14.62;66.02;101317.56;2082412;28;20149;-73
2022/02/19 02:01:37;;;;;;;10.15;3.10;;;;;;;14.63;65.69;101314.94;2098194;28;20060;-73
2022/02/19 02:03:28;;;;;;;4.43;1.65;;;;;;;14.62;65.52;101320.22;2090256;28;20435;-73
2022/02/19 02:04:52;;;;;;;5.68;1.75;;;;;;;14.63;65.93;101308.72;2086730;28;20048;-74
2022/02/19 02:06:19;;;;;;;4.20;1.80;;;;;;;14.63;66.01;101314.94;2096530;28;20052;-73
2022/02/19 02:07:41;;;;;;;12.45;2.28;;;;;;;14.61;65.95;101311.34;2086885;28;20577;-73
2022/02/19 02:09:05;;;;;;;9.85;2.80;;;;;;;14.62;66.13;101318.47;2092541;28;20048;-73
2022/02/19 02:10:32;;;;;;;8.45;3.38;;;;;;;14.64;66.23;101315.78;2087367;28;20040;-73
2022/02/19 02:11:55;;;;;;;10.90;2.97;;;;;;;14.62;66.12;101321.13;2109255;28;20495;-73
2022/02/19 02:13:18;;;;;;;5.38;2.17;;;;;;;14.62;66.31;101312.25;2083849;28;20064;-73
2022/02/19 02:14:40;;;;;;;6.00;2.13;;;;;;;14.63;66.11;101314.03;2101074;28;20040;-73
2022/02/19 02:16:11;;;;;;;4.85;1.70;;;;;;;14.65;65.44;101320.22;2090916;28;20073;-73
2022/02/19 02:17:57;;;;;;;6.93;2.08;;;;;;;14.67;65.64;101322.03;2094693;28;20070;-74
2022/02/19 02:19:20;;;;;;;5.85;2.58;;;;;;;14.67;65.59;101323.78;2080961;28;20076;-73
2022/02/19 02:20:54;;;;;;;12.65;2.25;;;;;;;14.67;65.24;101322.03;2087782;28;20539;-73
2022/02/19 02:22:19;;;;;;;7.40;1.70;;;;;;;14.70;64.75;101319.38;2095896;28;20040;-73
2022/02/19 02:23:42;;;;;;;11.30;3.78;;;;;;;14.71;64.66;101322.94;2086511;28;20072;-73
2022/02/19 02:25:07;;;;;;;6.22;1.98;;;;;;;14.72;64.27;101330.94;2086638;28;20463;-73
2022/02/19 02:26:34;;;;;;;5.68;1.92;;;;;;;14.73;63.97;101326.50;2088007;28;20418;-73
2022/02/19 02:27:57;;;;;;;5.45;1.85;;;;;;;14.75;63.70;101332.72;2085269;28;20179;-73
2022/02/19 02:29:20;;;;;;;7.97;2.58;;;;;;;14.77;63.79;101341.59;2092540;28;20060;-73
2022/02/19 02:30:43;;;;;;;6.05;1.67;;;;;;;14.77;63.45;101339.81;2100512;28;20129;-73
2022/02/19 02:32:10;;;;;;;5.25;1.75;;;;;;;14.79;63.36;101331.84;2079263;28;20084;-73
2022/02/19 02:33:32;;;;;;;5.22;1.60;;;;;;;14.80;63.35;101332.75;2092256;28;20040;-73
2022/02/19 02:35:03;;;;;;;6.57;1.77;;;;;;;14.79;63.24;101337.19;2089209;28;20045;-73
2022/02/19 02:36:31;;;;;;;4.13;1.50;;;;;;;14.80;63.15;101325.66;2085683;28;20096;-74
2022/02/19 02:37:55;;;;;;;10.82;2.22;;;;;;;14.84;63.42;101334.53;2091648;28;20711;-73
2022/02/19 02:39:18;;;;;;;4.07;1.75;;;;;;;14.85;63.05;101341.66;2089620;28;20068;-73
2022/02/19 02:40:40;;;;;;;7.18;2.08;;;;;;;14.85;62.97;101328.34;2075833;28;20445;-73
2022/02/19 02:42:03;;;;;;;4.55;1.35;;;;;;;14.84;62.09;101327.47;2076876;28;20156;-73
2022/02/19 02:43:26;;;;;;;6.15;1.40;;;;;;;14.83;61.92;101331.03;2084308;28;20114;-74
2022/02/19 02:44:47;;;;;;;7.35;2.03;;;;;;;14.82;61.40;101321.25;2078169;28;20038;-73
2022/02/19 02:46:12;;;;;;;5.03;1.90;;;;;;;14.81;60.88;101330.13;2093458;28;20056;-73
2022/02/19 02:47:40;;;;;;;11.25;4.65;;;;;;;14.84;60.93;101329.22;2089109;28;20110;-73
2022/02/19 02:49:04;;;;;;;4.90;2.13;;;;;;;14.83;60.98;101339.00;2085783;28;20591;-74
2022/02/19 02:50:27;;;;;;;7.53;2.35;;;;;;;14.83;61.06;101328.38;2076271;28;20049;-73
2022/02/19 02:51:50;;;;;;;5.20;1.40;;;;;;;14.83;60.98;101331.03;2088916;28;20033;-73
2022/02/19 02:53:14;;;;;;;8.57;2.03;;;;;;;14.85;61.04;101341.66;2086540;28;20071;-73
2022/02/19 02:54:38;;;;;;;4.78;1.90;;;;;;;14.81;60.57;101351.38;2101038;28;20079;-73
2022/02/19 02:55:59;;;;;;;4.85;1.63;;;;;;;14.82;60.17;101338.97;2092475;28;20047;-73
2022/02/19 02:57:23;;;;;;;4.97;1.65;;;;;;;14.80;59.78;101344.28;2081083;28;20049;-73
2022/02/19 02:58:45;;;;;;;8.73;2.00;;;;;;;14.82;59.88;101347.84;2087580;28;20499;-73
2022/02/19 03:00:11;;;;;;;9.52;1.92;;;;;;;14.82;59.20;101347.84;2094821;28;20041;-73
2022/02/19 03:01:36;;;;;;;8.25;2.50;;;;;;;14.81;59.68;101354.03;2076378;28;20501;-73
2022/02/19 03:02:59;;;;;;;5.18;1.95;;;;;;;14.82;59.41;101341.63;2076644;28;20081;-73
2022/02/19 03:04:24;;;;;;;9.32;2.75;;;;;;;14.79;59.57;101347.81;2085936;28;20148;-73
2022/02/19 03:05:47;;;;;;;6.75;2.17;;;;;;;14.78;59.45;101348.69;2093779;28;20044;-74
2022/02/19 03:07:10;;;;;;;6.15;1.67;;;;;;;14.74;59.29;101361.06;2090302;28;20147;-74
2022/02/19 03:08:36;;;;;;;5.82;2.53;;;;;;;14.73;59.26;101364.59;2097386;28;20059;-73
2022/02/19 03:09:59;;;;;;;5.38;2.60;;;;;;;14.73;59.51;101356.63;2086425;28;20041;-74
2022/02/19 03:11:23;;;;;;;6.03;2.80;;;;;;;14.74;59.24;101363.72;2101046;28;20130;-73
2022/02/19 03:12:45;;;;;;;3.72;2.25;;;;;;;14.77;59.91;101367.31;2088981;28;20052;-73
2022/02/19 03:14:10;;;;;;;7.82;2.17;;;;;;;14.74;59.61;101371.69;2092295;28;20053;-73
2022/02/19 03:15:31;;;;;;;6.53;2.13;;;;;;;14.74;59.44;101365.50;2102746;28;20047;-73
2022/02/19 03:16:54;;;;;;;4.55;1.60;;;;;;;14.75;59.11;101368.19;2088831;28;20068;-73
2022/02/19 03:18:17;;;;;;;7.03;2.15;;;;;;;14.77;59.24;101369.06;2086188;28;20041;-74
2022/02/19 03:19:39;;;;;;;6.38;2.15;;;;;;;14.77;58.75;101365.50;2084029;28;20056;-74
2022/02/19 03:21:02;;;;;;;5.55;2.15;;;;;;;14.78;58.87;101367.28;2075569;28;20444;-74
2022/02/19 03:22:25;;;;;;;9.60;3.30;;;;;;;14.74;58.98;101376.13;2106221;28;20054;-73
2022/02/19 03:23:52;;;;;;;6.82;2.15;;;;;;;14.71;58.49;101379.63;2094143;28;20110;-74
2022/02/19 03:25:14;;;;;;;5.60;1.45;;;;;;;14.67;58.73;101371.63;2100993;28;20105;-74
2022/02/19 03:26:37;;;;;;;4.78;1.50;;;;;;;14.67;58.44;101382.25;2091966;28;20088;-74
2022/02/19 03:28:05;;;;;;;6.40;3.15;;;;;;;14.67;58.26;101387.56;2085317;28;20075;-73
2022/02/19 03:29:29;;;;;;;6.18;2.40;;;;;;;14.66;58.43;101378.72;2083991;28;20095;-73
2022/02/19 03:30:51;;;;;;;9.05;2.15;;;;;;;14.66;58.64;101383.13;2086289;28;20060;-73
2022/02/19 03:32:32;;;;;;;5.05;1.77;;;;;;;14.64;58.56;101390.19;2080421;28;20069;-73
2022/02/19 03:33:55;;;;;;;5.38;1.10;;;;;;;14.61;58.52;101375.13;2099020;28;20126;-74
2022/02/19 03:35:22;;;;;;;6.28;1.35;;;;;;;14.59;58.48;101376.88;2082718;28;20757;-74
2022/02/19 03:36:45;;;;;;;5.30;1.58;;;;;;;14.60;58.25;101380.44;2083258;28;20124;-74
2022/02/19 03:38:07;;;;;;;4.53;1.20;;;;;;;14.59;58.52;101371.56;2100533;28;20094;-73
2022/02/19 03:39:49;;;;;;;5.53;1.75;;;;;;;14.60;58.46;101369.78;2072586;28;20445;-73
2022/02/19 03:41:12;;;;;;;4.50;1.77;;;;;;;14.61;58.10;101379.56;2093157;28;20052;-74
2022/02/19 03:42:35;;;;;;;5.43;1.20;;;;;;;14.60;58.13;101373.34;2087544;28;20053;-74
2022/02/19 03:44:00;;;;;;;5.85;1.70;;;;;;;14.60;58.22;101377.78;2078218;28;20042;-73
2022/02/19 03:45:22;;;;;;;8.07;2.03;;;;;;;14.59;58.33;101378.63;2083991;28;20052;-74
2022/02/19 03:46:57;;;;;;;8.90;2.28;;;;;;;14.61;58.42;101374.25;2086872;28;20052;-74
2022/02/19 03:48:46;;;;;;;6.55;1.63;;;;;;;14.62;57.94;101376.03;2102857;28;20040;-73
2022/02/19 03:50:12;;;;;;;6.25;1.58;;;;;;;14.62;58.29;101371.59;2090193;28;20049;-73
2022/02/19 03:51:36;;;;;;;3.53;1.17;;;;;;;14.59;58.03;101376.88;2085529;28;20136;-73
2022/02/19 03:52:59;;;;;;;7.57;2.10;;;;;;;14.56;58.39;101376.88;2086351;28;20137;-74
2022/02/19 03:54:33;;;;;;;8.68;2.75;;;;;;;14.56;58.21;101378.63;2079235;28;20505;-74
2022/02/19 03:55:57;;;;;;;6.00;2.22;;;;;;;14.59;58.34;101370.66;2077303;28;20033;-73
2022/02/19 03:57:20;;;;;;;4.43;1.35;;;;;;;14.57;58.16;101370.66;2096302;28;20099;-73
2022/02/19 03:58:45;;;;;;;6.07;1.10;;;;;;;14.57;58.32;101385.72;2088738;28;20071;-73
2022/02/19 04:00:12;;;;;;;5.93;1.45;;;;;;;14.58;58.35;101385.72;2086243;28;20060;-74
2022/02/19 04:01:38;;;;;;;5.35;1.15;;;;;;;14.58;58.43;101376.84;2093887;28;20048;-74
2022/02/19 04:03:09;;;;;;;2.22;1.52;;;;;;;14.59;58.18;101384.84;2095079;28;20040;-74
2022/02/19 04:04:32;;;;;;;5.30;1.30;;;;;;;14.59;58.14;101395.47;2094764;28;20227;-73
2022/02/19 04:05:54;;;;;;;11.38;0.93;;;;;;;14.59;58.60;101397.25;2094180;28;20396;-73
2022/02/19 04:07:16;;;;;;;4.45;1.08;;;;;;;14.58;58.31;101392.78;2086105;28;20033;-74
2022/02/19 04:08:51;;;;;;;5.53;1.98;;;;;;;14.60;58.30;101404.34;2086343;28;20510;-74
2022/02/19 04:10:14;;;;;;;6.60;2.35;;;;;;;14.60;58.28;101407.00;2100337;28;20465;-74
2022/02/19 04:11:38;;;;;;;7.35;2.10;;;;;;;14.61;58.18;101412.34;2088533;28;20515;-73
2022/02/19 04:13:01;;;;;;;9.55;2.53;;;;;;;14.61;58.27;101404.38;2099458;28;20044;-73
2022/02/19 04:14:51;;;;;;;3.67;1.23;;;;;;;14.61;58.14;101415.00;2096852;28;20044;-73
2022/02/19 04:16:12;;;;;;;7.07;2.47;;;;;;;14.61;58.11;101419.41;2085819;28;20049;-73
2022/02/19 04:17:41;;;;;;;4.30;1.50;;;;;;;14.62;58.27;101414.13;2084631;28;20079;-73
2022/02/19 04:19:05;;;;;;;5.65;1.30;;;;;;;14.61;58.30;101414.09;2085338;28;20136;-73
2022/02/19 04:20:29;;;;;;;1.23;0.77;;;;;;;14.59;57.99;101414.06;2075165;28;20052;-74
2022/02/19 04:21:50;;;;;;;3.25;1.33;;;;;;;14.61;58.21;101428.28;2099092;28;20044;-73
2022/02/19 04:23:16;;;;;;;5.88;1.60;;;;;;;14.61;58.12;101420.31;2087903;28;20103;-74
2022/02/19 04:24:41;;;;;;;3.38;1.10;;;;;;;14.60;58.37;101421.19;2083878;28;20424;-73
2022/02/19 04:26:09;;;;;;;3.25;1.17;;;;;;;14.59;58.28;101424.72;2085257;28;20151;-74
2022/02/19 04:27:53;;;;;;;;;;;;;;;14.59;58.09;101432.69;2105737;28;20050;-73
2022/02/19 04:29:18;;;;;;;2.25;1.00;;;;;;;14.55;58.39;101427.31;2088434;28;20257;-73
2022/02/19 04:30:45;;;;;;;4.95;1.88;;;;;;;14.55;58.48;101444.16;2085370;28;20037;-73
2022/02/19 04:32:08;;;;;;;4.60;2.35;;;;;;;14.55;58.69;101433.53;2077824;28;20123;-74
2022/02/19 04:33:37;;;;;;;5.70;2.00;;;;;;;14.56;58.68;101431.78;2077241;28;20480;-74
2022/02/19 04:34:59;;;;;;;4.60;2.05;;;;;;;14.55;58.58;101432.63;2077759;28;20059;-73
2022/02/19 04:36:25;;;;;;;9.60;1.45;;;;;;;14.55;58.62;101416.69;2083359;28;20484;-74
2022/02/19 04:37:47;;;;;;;5.20;2.40;;;;;;;14.54;58.33;101430.84;2084750;28;20128;-73
2022/02/19 04:39:09;;;;;;;5.97;1.25;;;;;;;14.54;58.39;101433.50;2091093;28;20532;-74
2022/02/19 04:40:33;;;;;;;8.50;2.20;;;;;;;14.54;58.06;101436.16;2086350;28;20076;-73
2022/02/19 04:41:57;;;;;;;2.70;1.20;;;;;;;14.54;58.17;101436.16;2102421;28;20420;-74
2022/02/19 04:43:22;;;;;;;5.07;1.60;;;;;;;14.54;58.15;101446.78;2082440;28;20152;-74
2022/02/19 04:44:46;;;;;;;5.85;1.92;;;;;;;14.51;58.44;101444.97;2086035;28;20045;-73
2022/02/19 04:46:09;;;;;;;5.93;2.60;;;;;;;14.47;58.45;101453.81;2091353;28;20048;-74
2022/02/19 04:47:30;;;;;;;6.55;1.58;;;;;;;14.43;58.77;101457.31;2087391;28;20423;-74
2022/02/19 04:48:53;;;;;;;2.20;1.00;;;;;;;14.36;58.36;101443.03;2091315;28;20044;-74
2022/02/19 04:50:15;;;;;;;3.28;1.60;;;;;;;14.35;58.40;101446.56;2088646;28;20045;-73
2022/02/19 04:51:39;;;;;;;4.45;1.70;;;;;;;14.33;58.64;101455.38;2085474;28;20415;-73
2022/02/19 04:53:01;;;;;;;5.70;1.60;;;;;;;14.30;58.63;101458.91;2102471;28;20051;-74
2022/02/19 04:54:30;;;;;;;13.80;4.57;;;;;;;14.27;58.91;101453.56;2082588;28;20085;-73
2022/02/19 04:55:52;;;;;;;39.05;11.88;;;;;;;14.23;58.90;101458.81;2083225;28;20048;-73
2022/02/19 04:57:17;;;;;;;12.27;4.55;;;;;;;14.21;58.96;101456.13;2086032;28;20576;-74
2022/02/19 04:58:44;;;;;;;8.43;4.30;;;;;;;14.18;58.93;101456.09;2089550;28;20044;-73
2022/02/19 05:00:09;;;;;;;9.35;2.30;;;;;;;14.15;59.43;101448.09;2084101;28;20091;-73
2022/02/19 05:01:51;;;;;;;7.20;3.83;;;;;;;14.10;59.61;101447.16;2089955;28;20047;-74
2022/02/19 05:03:15;;;;;;;4.43;1.73;;;;;;;14.08;59.48;101446.25;2095649;28;20044;-73
2022/02/19 05:04:46;;;;;;;5.57;1.55;;;;;;;14.06;59.75;101440.00;2082640;28;20051;-74
2022/02/19 05:06:18;;;;;;;2.97;1.40;;;;;;;14.03;59.43;101442.66;2080540;28;20090;-73
2022/02/19 05:07:49;;;;;;;3.92;1.42;;;;;;;14.01;59.79;101439.06;2088786;28;20523;-73
2022/02/19 05:09:12;;;;;;;5.65;1.80;;;;;;;14.00;59.60;101434.63;2095552;28;20516;-73
2022/02/19 05:10:41;;;;;;;4.60;1.23;;;;;;;13.98;59.77;101444.31;2088510;28;20041;-73
2022/02/19 05:12:06;;;;;;;2.35;1.15;;;;;;;13.99;60.08;101446.13;2081882;28;20065;-73
2022/02/19 05:13:31;;;;;;;7.80;1.83;;;;;;;13.96;59.92;101439.03;2079572;28;20061;-73
2022/02/19 05:14:55;;;;;;;5.03;1.13;;;;;;;13.96;60.17;101441.69;2084089;28;20073;-73
2022/02/19 05:16:22;;;;;;;5.18;1.80;;;;;;;13.95;60.16;101441.66;2089329;28;20045;-73
2022/02/19 05:17:58;;;;;;;5.00;2.00;;;;;;;13.94;59.97;101439.88;2104516;28;20071;-74
2022/02/19 05:19:21;;;;;;;5.70;2.30;;;;;;;13.95;60.27;101439.91;2090323;28;20508;-73
2022/02/19 05:20:44;;;;;;;4.22;1.58;;;;;;;13.95;60.11;101441.66;2093060;28;20562;-74
2022/02/19 05:22:07;;;;;;;5.40;1.70;;;;;;;13.95;60.20;101446.97;2089777;28;20060;-73
2022/02/19 05:23:32;;;;;;;5.80;2.15;;;;;;;13.96;59.94;101456.72;2086732;28;20056;-73
2022/02/19 05:24:55;;;;;;;4.47;1.65;;;;;;;13.95;60.00;101450.50;2092916;28;20036;-74
2022/02/19 05:26:17;;;;;;;2.78;1.50;;;;;;;13.95;59.79;101457.59;2095415;28;20070;-74
2022/02/19 05:27:39;;;;;;;3.25;1.35;;;;;;;13.96;59.58;101459.38;2100868;28;20093;-73
2022/02/19 05:29:05;;;;;;;2.20;0.77;;;;;;;13.95;59.45;101461.13;2079372;28;20053;-73
2022/02/19 05:30:29;;;;;;;5.13;1.27;;;;;;;14.00;59.31;101465.59;2084319;28;20081;-74
2022/02/19 05:32:10;;;;;;;;;;;;;;;14.01;59.50;101468.28;2099213;28;20044;-74
2022/02/19 05:33:46;;;;;;;2.05;0.90;;;;;;;13.98;59.14;101476.19;2088348;28;19927;-74
2022/02/19 05:35:09;;;;;;;12.63;3.03;;;;;;;13.99;59.24;101472.66;2068362;28;20049;-73
2022/02/19 05:36:34;;;;;;;2.28;0.95;;;;;;;14.00;59.01;101473.56;2079233;28;20050;-74
2022/02/19 05:37:56;;;;;;;7.57;1.70;;;;;;;14.00;58.92;101477.09;2087121;28;20076;-74
2022/02/19 05:39:19;;;;;;;4.93;2.00;;;;;;;14.02;58.78;101467.41;2088873;28;20044;-73
2022/02/19 05:40:41;;;;;;;6.18;2.20;;;;;;;14.07;58.53;101471.00;2087243;28;20060;-74
2022/02/19 05:42:05;;;;;;;6.13;1.80;;;;;;;14.17;58.67;101474.69;2084812;28;20091;-74
2022/02/19 05:43:29;;;;;;;4.28;1.60;;;;;;;14.20;58.40;101480.00;2093272;28;20037;-74
2022/02/19 05:44:58;;;;;;;3.53;1.70;;;;;;;14.22;58.47;101484.47;2087722;28;20037;-73
2022/02/19 05:46:23;;;;;;;6.38;2.22;;;;;;;14.26;58.24;101480.09;2084537;28;20049;-74
2022/02/19 05:47:46;;;;;;;7.88;2.35;;;;;;;14.25;58.54;101491.56;2084463;28;20072;-74
2022/02/19 05:49:37;;;;;;;5.90;1.73;;;;;;;14.23;58.34;101486.28;2102639;28;20059;-73
2022/02/19 05:51:06;;;;;;;2.60;1.55;;;;;;;14.22;57.78;101497.75;2090650;28;20496;-74
2022/02/19 05:52:41;;;;;;;3.38;1.23;;;;;;;14.19;58.00;101511.00;2080906;28;20136;-74
2022/02/19 05:54:23;;;;;;;6.30;2.20;;;;;;;14.19;57.97;101500.38;2090626;28;20036;-74
2022/02/19 05:55:53;;;;;;;4.00;1.50;;;;;;;14.18;58.29;101505.66;2101288;28;20044;-73
2022/02/19 05:57:16;;;;;;;8.35;1.73;;;;;;;14.18;58.08;101508.31;2093156;28;20053;-74
2022/02/19 05:58:39;;;;;;;5.47;2.00;;;;;;;14.19;57.83;101510.09;2100139;28;20060;-74
2022/02/19 06:00:11;;;;;;;3.72;1.45;;;;;;;14.21;57.79;101511.00;2091089;28;20052;-74
2022/02/19 06:01:39;;;;;;;4.43;1.77;;;;;;;14.22;57.80;101513.69;2085756;28;20041;-74
2022/02/19 06:03:02;;;;;;;8.38;2.05;;;;;;;14.21;57.62;101518.97;2085586;28;20104;-73
2022/02/19 06:04:25;;;;;;;3.90;1.40;;;;;;;14.20;57.43;101518.09;2078882;28;20045;-73
2022/02/19 06:05:48;;;;;;;3.08;1.20;;;;;;;14.20;57.58;101510.13;2094989;28;20154;-74
2022/02/19 06:07:12;;;;;;;5.22;1.92;;;;;;;14.21;56.86;101521.63;2088811;28;20487;-74
2022/02/19 06:08:37;;;;;;;1.92;1.67;;;;;;;14.22;57.32;101521.66;2084289;28;20041;-74
2022/02/19 06:09:59;;;;;;;3.15;1.38;;;;;;;14.24;56.76;101527.88;2076101;28;20497;-74
2022/02/19 06:11:23;;;;;;;4.75;2.42;;;;;;;14.24;56.28;101522.56;2092656;28;20053;-73
2022/02/19 06:13:05;;;;;;;2.55;1.27;;;;;;;14.27;56.30;101516.41;2097456;28;20059;-74
2022/02/19 06:14:34;;;;;;;4.78;1.60;;;;;;;14.27;55.17;101527.03;2104629;28;20074;-74
2022/02/19 06:16:01;;;;;;;3.60;1.73;;;;;;;14.28;54.65;101511.13;2089901;28;20082;-74
2022/02/19 06:17:36;;;;;;;6.40;1.98;;;;;;;14.29;54.46;101527.94;2079924;28;20045;-74
2022/02/19 06:18:59;;;;;;;3.47;1.17;;;;;;;14.43;54.20;101523.75;2074054;28;20673;-73
2022/02/19 06:20:22;;;;;;;3.10;1.20;;;;;;;14.64;52.49;101515.09;2087535;28;20110;-74
2022/02/19 06:21:45;;;;;;;2.42;1.00;;;;;;;14.74;51.51;101517.88;2096147;28;20071;-74
2022/02/19 06:23:08;;;;;;;3.28;1.70;;;;;;;14.78;51.03;101526.78;2086723;28;20037;-74
2022/02/19 06:24:33;;;;;;;3.40;1.48;;;;;;;14.95;51.41;101511.00;2084331;28;20618;-74
2022/02/19 06:25:56;;;;;;;3.80;1.50;;;;;;;15.19;50.51;101519.22;2070571;28;20466;-74
2022/02/19 06:27:19;;;;;;;4.63;1.45;;;;;;;15.41;50.68;101522.94;2088842;28;20045;-74
2022/02/19 06:29:05;;;;;;;6.53;1.67;;;;;;;15.64;50.19;101517.81;2105903;28;20048;-74
2022/02/19 06:30:30;;;;;;;5.95;1.50;;;;;;;15.84;49.89;101522.41;2095264;28;20079;-74
2022/02/19 06:32:00;;;;;;;2.83;1.27;;;;;;;16.01;49.39;101514.53;2077762;28;20056;-74
2022/02/19 06:33:23;;;;;;;3.85;1.42;;;;;;;16.20;49.09;101518.16;2086184;28;20045;-74
2022/02/19 06:34:50;;;;;;;6.10;1.20;;;;;;;16.31;49.24;101525.31;2085517;28;20504;-74
2022/02/19 06:36:23;;;;;;;2.72;1.35;;;;;;;16.43;48.75;101515.59;2084354;28;20102;-74
2022/02/19 06:37:48;;;;;;;3.00;1.05;;;;;;;16.49;47.72;101503.16;2092732;28;20040;-74